sensor_id;sensor_type;location;lat;lon;timestamp;pressure;altitude;pressure_sealevel;temperature;humidity
61119;BME280;51448;51.660;5.824;2023-03-01T00:01:44;103022.09;;;-1.27;71.87
61119;BME280;51448;51.660;5.824;2023-03-01T00:04:12;103013.38;;;-1.29;71.99
61119;BME280;51448;51.660;5.824;2023-03-01T00:06:39;103020.16;;;-1.31;71.71
61119;BME280;51448;51.660;5.824;2023-03-01T00:09:09;103019.16;;;-1.33;72.21
61119;BME280;51448;51.660;5.824;2023-03-01T00:11:36;103018.28;;;-1.33;72.37
61119;BME280;51448;51.660;5.824;2023-03-01T00:14:04;103023.44;;;-1.33;72.38
61119;BME280;51448;51.660;5.824;2023-03-01T00:16:36;103024.25;;;-1.34;72.68
61119;BME280;51448;51.660;5.824;2023-03-01T00:19:11;103023.38;;;-1.35;72.80
61119;BME280;51448;51.660;5.824;2023-03-01T00:21:40;103024.16;;;-1.36;72.85
61119;BME280;51448;51.660;5.824;2023-03-01T00:24:09;103019.81;;;-1.37;73.00
61119;BME280;51448;51.660;5.824;2023-03-01T00:26:37;103014.78;;;-1.34;73.43
61119;BME280;51448;51.660;5.824;2023-03-01T00:29:05;103014.09;;;-1.31;73.61
61119;BME280;51448;51.660;5.824;2023-03-01T00:31:34;103013.53;;;-1.26;73.97
61119;BME280;51448;51.660;5.824;2023-03-01T00:34:04;103011.13;;;-1.23;73.70
61119;BME280;51448;51.660;5.824;2023-03-01T00:36:35;103012.09;;;-1.20;73.37
61119;BME280;51448;51.660;5.824;2023-03-01T00:39:05;103005.78;;;-1.26;73.00
61119;BME280;51448;51.660;5.824;2023-03-01T00:41:37;103010.16;;;-1.25;73.24
61119;BME280;51448;51.660;5.824;2023-03-01T00:44:05;102999.09;;;-1.22;73.40
61119;BME280;51448;51.660;5.824;2023-03-01T00:46:35;102999.97;;;-1.22;73.50
61119;BME280;51448;51.660;5.824;2023-03-01T00:49:04;103003.38;;;-1.23;73.76
61119;BME280;51448;51.660;5.824;2023-03-01T00:51:32;102996.44;;;-1.24;73.54
61119;BME280;51448;51.660;5.824;2023-03-01T00:54:02;102993.94;;;-1.22;73.60
61119;BME280;51448;51.660;5.824;2023-03-01T00:56:30;102995.53;;;-1.24;73.70
61119;BME280;51448;51.660;5.824;2023-03-01T00:58:59;102997.16;;;-1.26;73.72
61119;BME280;51448;51.660;5.824;2023-03-01T01:01:29;102987.56;;;-1.29;73.14
61119;BME280;51448;51.660;5.824;2023-03-01T01:04:04;102995.59;;;-1.39;73.15
61119;BME280;51448;51.660;5.824;2023-03-01T01:06:37;102987.66;;;-1.42;73.71
61119;BME280;51448;51.660;5.824;2023-03-01T01:09:12;102983.47;;;-1.40;73.64
61119;BME280;51448;51.660;5.824;2023-03-01T01:11:48;102982.50;;;-1.42;73.57
61119;BME280;51448;51.660;5.824;2023-03-01T01:14:18;102980.66;;;-1.45;73.72
61119;BME280;51448;51.660;5.824;2023-03-01T01:16:48;102976.22;;;-1.47;73.61
61119;BME280;51448;51.660;5.824;2023-03-01T01:19:16;102974.41;;;-1.48;73.70
61119;BME280;51448;51.660;5.824;2023-03-01T01:21:44;102971.69;;;-1.51;73.82
61119;BME280;51448;51.660;5.824;2023-03-01T01:24:12;102973.28;;;-1.53;73.79
61119;BME280;51448;51.660;5.824;2023-03-01T01:26:40;102956.84;;;-1.55;74.01
61119;BME280;51448;51.660;5.824;2023-03-01T01:29:09;102955.94;;;-1.56;74.46
61119;BME280;51448;51.660;5.824;2023-03-01T01:31:39;102944.66;;;-1.58;74.22
61119;BME280;51448;51.660;5.824;2023-03-01T01:34:17;102946.72;;;-1.67;73.98
61119;BME280;51448;51.660;5.824;2023-03-01T01:36:51;102952.75;;;-1.67;74.35
61119;BME280;51448;51.660;5.824;2023-03-01T01:39:23;102955.31;;;-1.67;74.05
61119;BME280;51448;51.660;5.824;2023-03-01T01:41:50;102953.66;;;-1.66;74.30
61119;BME280;51448;51.660;5.824;2023-03-01T01:44:24;102945.97;;;-1.65;74.36
61119;BME280;51448;51.660;5.824;2023-03-01T01:47:01;102945.81;;;-1.68;74.19
61119;BME280;51448;51.660;5.824;2023-03-01T01:49:37;102945.63;;;-1.71;73.96
61119;BME280;51448;51.660;5.824;2023-03-01T01:52:14;102935.94;;;-1.75;74.10
61119;BME280;51448;51.660;5.824;2023-03-01T01:55:08;102928.22;;;-1.75;74.23
61119;BME280;51448;51.660;5.824;2023-03-01T01:57:45;102933.94;;;-1.80;74.46
61119;BME280;51448;51.660;5.824;2023-03-01T02:00:22;102931.16;;;-1.84;74.52
61119;BME280;51448;51.660;5.824;2023-03-01T02:03:00;102920.59;;;-1.88;74.67
61119;BME280;51448;51.660;5.824;2023-03-01T02:05:58;102925.56;;;-1.91;74.80
61119;BME280;51448;51.660;5.824;2023-03-01T02:08:29;102933.16;;;-1.94;74.77
61119;BME280;51448;51.660;5.824;2023-03-01T02:11:00;102930.56;;;-1.94;75.01
61119;BME280;51448;51.660;5.824;2023-03-01T02:13:32;102935.38;;;-2.00;74.47
61119;BME280;51448;51.660;5.824;2023-03-01T02:16:19;102932.19;;;-1.96;75.36
61119;BME280;51448;51.660;5.824;2023-03-01T02:18:47;102941.66;;;-1.95;75.18
61119;BME280;51448;51.660;5.824;2023-03-01T02:21:42;102932.44;;;-1.92;75.23
61119;BME280;51448;51.660;5.824;2023-03-01T02:27:23;102936.44;;;-2.12;74.83
61119;BME280;51448;51.660;5.824;2023-03-01T02:29:55;102927.09;;;-2.10;75.13
61119;BME280;51448;51.660;5.824;2023-03-01T02:32:24;102932.53;;;-2.05;75.02
61119;BME280;51448;51.660;5.824;2023-03-01T02:34:53;102925.78;;;-2.03;75.74
61119;BME280;51448;51.660;5.824;2023-03-01T02:37:24;102922.38;;;-2.02;75.59
61119;BME280;51448;51.660;5.824;2023-03-01T02:39:59;102923.28;;;-2.02;75.68
61119;BME280;51448;51.660;5.824;2023-03-01T02:42:37;102921.41;;;-2.04;75.76
61119;BME280;51448;51.660;5.824;2023-03-01T02:45:13;102917.06;;;-2.05;75.70
61119;BME280;51448;51.660;5.824;2023-03-01T02:47:42;102915.47;;;-2.03;75.84
61119;BME280;51448;51.660;5.824;2023-03-01T02:53:14;102917.97;;;-2.05;76.02
61119;BME280;51448;51.660;5.824;2023-03-01T02:55:49;102913.59;;;-2.06;76.13
61119;BME280;51448;51.660;5.824;2023-03-01T02:58:17;102911.19;;;-2.03;75.89
61119;BME280;51448;51.660;5.824;2023-03-01T03:00:46;102926.66;;;-2.03;76.20
61119;BME280;51448;51.660;5.824;2023-03-01T03:03:17;102927.44;;;-2.04;76.46
61119;BME280;51448;51.660;5.824;2023-03-01T03:05:48;102925.69;;;-2.05;76.34
61119;BME280;51448;51.660;5.824;2023-03-01T03:08:16;102930.84;;;-2.05;76.76
61119;BME280;51448;51.660;5.824;2023-03-01T03:10:52;102927.38;;;-2.05;76.92
61119;BME280;51448;51.660;5.824;2023-03-01T03:13:20;102924.88;;;-2.04;77.00
61119;BME280;51448;51.660;5.824;2023-03-01T03:15:49;102921.50;;;-2.03;77.11
61119;BME280;51448;51.660;5.824;2023-03-01T03:18:17;102919.03;;;-2.01;77.35
61119;BME280;51448;51.660;5.824;2023-03-01T03:20:46;102913.16;;;-1.98;77.33
61119;BME280;51448;51.660;5.824;2023-03-01T03:23:14;102920.06;;;-1.97;77.20
61119;BME280;51448;51.660;5.824;2023-03-01T03:25:42;102916.69;;;-1.96;77.69
61119;BME280;51448;51.660;5.824;2023-03-01T03:28:10;102919.19;;;-1.98;77.48
61119;BME280;51448;51.660;5.824;2023-03-01T03:30:40;102920.97;;;-1.97;77.57
61119;BME280;51448;51.660;5.824;2023-03-01T03:33:10;102920.06;;;-1.97;77.81
61119;BME280;51448;51.660;5.824;2023-03-01T03:35:44;102923.13;;;-2.05;77.47
61119;BME280;51448;51.660;5.824;2023-03-01T03:38:14;102912.81;;;-2.05;77.75
61119;BME280;51448;51.660;5.824;2023-03-01T03:41:00;102910.03;;;-2.08;77.22
61119;BME280;51448;51.660;5.824;2023-03-01T03:43:32;102915.38;;;-2.05;77.85
61119;BME280;51448;51.660;5.824;2023-03-01T03:46:03;102911.00;;;-2.06;77.36
61119;BME280;51448;51.660;5.824;2023-03-01T03:48:35;102908.53;;;-2.04;78.07
61119;BME280;51448;51.660;5.824;2023-03-01T03:51:12;102902.81;;;-1.98;77.97
61119;BME280;51448;51.660;5.824;2023-03-01T03:53:42;102909.34;;;-2.05;77.30
61119;BME280;51448;51.660;5.824;2023-03-01T03:56:11;102904.25;;;-2.04;78.13
61119;BME280;51448;51.660;5.824;2023-03-01T03:58:39;102901.03;;;-1.99;78.18
61119;BME280;51448;51.660;5.824;2023-03-01T04:01:07;102900.34;;;-1.97;78.21
61119;BME280;51448;51.660;5.824;2023-03-01T04:03:35;102893.41;;;-1.98;78.14
61119;BME280;51448;51.660;5.824;2023-03-01T04:06:03;102892.41;;;-2.00;77.59
61119;BME280;51448;51.660;5.824;2023-03-01T04:08:32;102892.41;;;-2.00;78.26
61119;BME280;51448;51.660;5.824;2023-03-01T04:11:02;102893.41;;;-1.98;78.26
61119;BME280;51448;51.660;5.824;2023-03-01T04:13:54;102885.50;;;-2.01;78.38
61119;BME280;51448;51.660;5.824;2023-03-01T04:16:24;102885.41;;;-2.03;78.32
61119;BME280;51448;51.660;5.824;2023-03-01T04:18:52;102883.63;;;-2.04;78.54
61119;BME280;51448;51.660;5.824;2023-03-01T04:21:21;102887.00;;;-2.05;78.80
61119;BME280;51448;51.660;5.824;2023-03-01T04:23:49;102883.47;;;-2.07;78.89
61119;BME280;51448;51.660;5.824;2023-03-01T04:26:20;102882.63;;;-2.06;78.80
61119;BME280;51448;51.660;5.824;2023-03-01T04:28:48;102885.22;;;-2.06;78.80
61119;BME280;51448;51.660;5.824;2023-03-01T04:31:18;102868.97;;;-2.05;78.90
61119;BME280;51448;51.660;5.824;2023-03-01T04:33:51;102865.16;;;-2.11;78.54
61119;BME280;51448;51.660;5.824;2023-03-01T04:36:24;102860.69;;;-2.14;78.81
61119;BME280;51448;51.660;5.824;2023-03-01T04:38:55;102867.63;;;-2.13;79.08
61119;BME280;51448;51.660;5.824;2023-03-01T04:41:24;102853.88;;;-2.13;79.20
61119;BME280;51448;51.660;5.824;2023-03-01T04:43:53;102859.81;;;-2.14;79.04
61119;BME280;51448;51.660;5.824;2023-03-01T04:46:21;102852.97;;;-2.14;79.44
61119;BME280;51448;51.660;5.824;2023-03-01T04:48:49;102863.38;;;-2.12;79.23
61119;BME280;51448;51.660;5.824;2023-03-01T04:51:17;102867.63;;;-2.13;79.30
61119;BME280;51448;51.660;5.824;2023-03-01T04:53:46;102868.38;;;-2.15;79.16
61119;BME280;51448;51.660;5.824;2023-03-01T04:56:14;102865.59;;;-2.18;79.43
61119;BME280;51448;51.660;5.824;2023-03-01T04:58:43;102852.56;;;-2.21;79.60
61119;BME280;51448;51.660;5.824;2023-03-01T05:01:14;102855.91;;;-2.23;79.76
61119;BME280;51448;51.660;5.824;2023-03-01T05:03:49;102851.47;;;-2.25;79.96
61119;BME280;51448;51.660;5.824;2023-03-01T05:06:19;102849.53;;;-2.29;79.70
61119;BME280;51448;51.660;5.824;2023-03-01T05:08:47;102856.38;;;-2.30;79.87
61119;BME280;51448;51.660;5.824;2023-03-01T05:11:16;102845.16;;;-2.30;80.24
61119;BME280;51448;51.660;5.824;2023-03-01T05:13:43;102846.06;;;-2.30;80.26
61119;BME280;51448;51.660;5.824;2023-03-01T05:16:11;102845.25;;;-2.29;80.32
61119;BME280;51448;51.660;5.824;2023-03-01T05:18:40;102844.53;;;-2.26;80.46
61119;BME280;51448;51.660;5.824;2023-03-01T05:21:12;102837.88;;;-2.23;80.53
61119;BME280;51448;51.660;5.824;2023-03-01T05:23:44;102839.56;;;-2.23;80.79
61119;BME280;51448;51.660;5.824;2023-03-01T05:26:13;102834.56;;;-2.20;80.40
61119;BME280;51448;51.660;5.824;2023-03-01T05:28:55;102827.66;;;-2.21;80.29
61119;BME280;51448;51.660;5.824;2023-03-01T05:31:27;102825.06;;;-2.21;80.41
61119;BME280;51448;51.660;5.824;2023-03-01T05:33:55;102824.25;;;-2.20;80.05
61119;BME280;51448;51.660;5.824;2023-03-01T05:36:23;102818.22;;;-2.20;80.17
61119;BME280;51448;51.660;5.824;2023-03-01T05:38:51;102820.00;;;-2.19;79.92
61119;BME280;51448;51.660;5.824;2023-03-01T05:41:19;102815.72;;;-2.19;80.12
61119;BME280;51448;51.660;5.824;2023-03-01T05:43:47;102818.31;;;-2.19;80.28
61119;BME280;51448;51.660;5.824;2023-03-01T05:46:14;102820.88;;;-2.19;80.23
61119;BME280;51448;51.660;5.824;2023-03-01T05:48:42;102815.72;;;-2.19;80.09
61119;BME280;51448;51.660;5.824;2023-03-01T05:51:11;102812.97;;;-2.22;80.38
61119;BME280;51448;51.660;5.824;2023-03-01T05:53:39;102820.53;;;-2.25;80.03
61119;BME280;51448;51.660;5.824;2023-03-01T05:56:07;102818.75;;;-2.26;80.03
61119;BME280;51448;51.660;5.824;2023-03-01T05:58:35;102813.81;;;-2.38;79.63
61119;BME280;51448;51.660;5.824;2023-03-01T06:01:02;102815.41;;;-2.40;80.42
61119;BME280;51448;51.660;5.824;2023-03-01T06:03:30;102827.59;;;-2.37;80.50
61119;BME280;51448;51.660;5.824;2023-03-01T06:05:58;102823.41;;;-2.35;80.59
61119;BME280;51448;51.660;5.824;2023-03-01T06:08:26;102823.41;;;-2.35;80.44
61119;BME280;51448;51.660;5.824;2023-03-01T06:10:54;102827.69;;;-2.36;80.57
61119;BME280;51448;51.660;5.824;2023-03-01T06:13:22;102817.38;;;-2.36;80.41
61119;BME280;51448;51.660;5.824;2023-03-01T06:15:51;102822.53;;;-2.36;80.69
61119;BME280;51448;51.660;5.824;2023-03-01T06:18:19;102820.72;;;-2.37;80.59
61119;BME280;51448;51.660;5.824;2023-03-01T06:20:55;102830.59;;;-2.45;80.31
61119;BME280;51448;51.660;5.824;2023-03-01T06:23:24;102827.34;;;-2.42;80.71
61119;BME280;51448;51.660;5.824;2023-03-01T06:25:52;102828.38;;;-2.38;80.46
61119;BME280;51448;51.660;5.824;2023-03-01T06:28:20;102826.78;;;-2.36;80.84
61119;BME280;51448;51.660;5.824;2023-03-01T06:30:49;102820.97;;;-2.32;80.73
61119;BME280;51448;51.660;5.824;2023-03-01T06:33:18;102819.38;;;-2.30;80.53
61119;BME280;51448;51.660;5.824;2023-03-01T06:35:47;102820.34;;;-2.28;80.62
61119;BME280;51448;51.660;5.824;2023-03-01T06:38:15;102818.69;;;-2.28;80.42
61119;BME280;51448;51.660;5.824;2023-03-01T06:40:45;102824.88;;;-2.24;80.76
61119;BME280;51448;51.660;5.824;2023-03-01T06:43:20;102821.44;;;-2.25;80.52
61119;BME280;51448;51.660;5.824;2023-03-01T06:45:48;102823.28;;;-2.22;80.57
61119;BME280;51448;51.660;5.824;2023-03-01T06:48:16;102818.06;;;-2.24;80.31
61119;BME280;51448;51.660;5.824;2023-03-01T06:50:44;102819.72;;;-2.24;80.57
61119;BME280;51448;51.660;5.824;2023-03-01T06:53:12;102809.06;;;-2.30;80.54
61119;BME280;51448;51.660;5.824;2023-03-01T06:55:40;102813.34;;;-2.31;80.54
61119;BME280;51448;51.660;5.824;2023-03-01T06:58:08;102817.09;;;-2.26;80.43
61119;BME280;51448;51.660;5.824;2023-03-01T07:00:37;102817.16;;;-2.24;80.77
61119;BME280;51448;51.660;5.824;2023-03-01T07:03:04;102818.22;;;-2.20;80.58
61119;BME280;51448;51.660;5.824;2023-03-01T07:05:33;102812.53;;;-2.15;80.69
61119;BME280;51448;51.660;5.824;2023-03-01T07:08:01;102812.03;;;-2.08;81.13
61119;BME280;51448;51.660;5.824;2023-03-01T07:10:28;102809.81;;;-2.02;81.09
61119;BME280;51448;51.660;5.824;2023-03-01T07:12:57;102815.28;;;-1.95;81.46
61119;BME280;51448;51.660;5.824;2023-03-01T07:15:26;102812.09;;;-1.91;81.49
61119;BME280;51448;51.660;5.824;2023-03-01T07:17:56;102817.56;;;-1.85;81.31
61119;BME280;51448;51.660;5.824;2023-03-01T07:20:23;102819.69;;;-1.78;81.14
61119;BME280;51448;51.660;5.824;2023-03-01T07:22:54;102821.97;;;-1.68;81.32
61119;BME280;51448;51.660;5.824;2023-03-01T07:25:22;102831.91;;;-1.59;81.38
61119;BME280;51448;51.660;5.824;2023-03-01T07:27:51;102831.34;;;-1.53;81.05
61119;BME280;51448;51.660;5.824;2023-03-01T07:30:20;102830.69;;;-1.49;80.91
61119;BME280;51448;51.660;5.824;2023-03-01T07:32:48;102828.44;;;-1.43;80.83
61119;BME280;51448;51.660;5.824;2023-03-01T07:35:17;102834.81;;;-1.36;80.86
61119;BME280;51448;51.660;5.824;2023-03-01T07:37:45;102829.09;;;-1.31;80.99
61119;BME280;51448;51.660;5.824;2023-03-01T07:40:13;102832.78;;;-1.26;81.01
61119;BME280;51448;51.660;5.824;2023-03-01T07:42:41;102831.25;;;-1.22;80.94
61119;BME280;51448;51.660;5.824;2023-03-01T07:45:09;102823.75;;;-1.17;81.28
61119;BME280;51448;51.660;5.824;2023-03-01T07:47:37;102818.03;;;-1.12;80.40
61119;BME280;51448;51.660;5.824;2023-03-01T07:50:05;102824.31;;;-1.07;81.28
61119;BME280;51448;51.660;5.824;2023-03-01T07:52:33;102831.47;;;-1.01;81.45
61119;BME280;51448;51.660;5.824;2023-03-01T07:55:00;102824.03;;;-0.95;81.19
61119;BME280;51448;51.660;5.824;2023-03-01T07:57:28;102832.94;;;-0.90;80.97
61119;BME280;51448;51.660;5.824;2023-03-01T07:59:56;102832.41;;;-0.83;80.92
61119;BME280;51448;51.660;5.824;2023-03-01T08:02:24;102833.56;;;-0.77;81.19
61119;BME280;51448;51.660;5.824;2023-03-01T08:04:52;102833.88;;;-0.71;81.44
61119;BME280;51448;51.660;5.824;2023-03-01T08:07:20;102832.31;;;-0.68;81.57
61119;BME280;51448;51.660;5.824;2023-03-01T08:09:47;102831.72;;;-0.62;81.56
61119;BME280;51448;51.660;5.824;2023-03-01T08:12:16;102832.94;;;-0.55;82.12
61119;BME280;51448;51.660;5.824;2023-03-01T08:14:44;102826.19;;;-0.52;82.25
61119;BME280;51448;51.660;5.824;2023-03-01T08:17:14;102826.50;;;-0.46;82.35
61119;BME280;51448;51.660;5.824;2023-03-01T08:19:43;102830.28;;;-0.39;82.29
61119;BME280;51448;51.660;5.824;2023-03-01T08:22:10;102825.47;;;-0.31;82.14
61119;BME280;51448;51.660;5.824;2023-03-01T08:24:38;102822.47;;;-0.23;82.59
61119;BME280;51448;51.660;5.824;2023-03-01T08:27:06;102821.19;;;-0.13;82.07
61119;BME280;51448;51.660;5.824;2023-03-01T08:29:34;102821.63;;;-0.04;82.03
61119;BME280;51448;51.660;5.824;2023-03-01T08:32:02;102821.25;;;0.07;81.91
61119;BME280;51448;51.660;5.824;2023-03-01T08:34:30;102817.41;;;0.16;81.96
61119;BME280;51448;51.660;5.824;2023-03-01T08:36:58;102816.19;;;0.28;81.58
61119;BME280;51448;51.660;5.824;2023-03-01T08:39:26;102814.22;;;0.42;81.33
61119;BME280;51448;51.660;5.824;2023-03-01T08:41:54;102807.81;;;0.53;80.90
61119;BME280;51448;51.660;5.824;2023-03-01T08:44:22;102797.97;;;0.64;81.25
61119;BME280;51448;51.660;5.824;2023-03-01T08:46:50;102799.38;;;0.76;80.73
61119;BME280;51448;51.660;5.824;2023-03-01T08:49:20;102796.38;;;0.87;80.09
61119;BME280;51448;51.660;5.824;2023-03-01T08:51:48;102798.66;;;1.00;79.76
61119;BME280;51448;51.660;5.824;2023-03-01T08:54:19;102794.81;;;1.11;79.27
61119;BME280;51448;51.660;5.824;2023-03-01T08:56:48;102794.38;;;1.22;78.93
61119;BME280;51448;51.660;5.824;2023-03-01T08:59:16;102795.69;;;1.33;78.93
61119;BME280;51448;51.660;5.824;2023-03-01T09:01:45;102794.44;;;1.44;78.23
61119;BME280;51448;51.660;5.824;2023-03-01T09:04:14;102794.94;;;1.56;77.69
61119;BME280;51448;51.660;5.824;2023-03-01T09:06:42;102805.81;;;1.69;77.56
61119;BME280;51448;51.660;5.824;2023-03-01T09:09:15;102785.63;;;1.83;76.85
61119;BME280;51448;51.660;5.824;2023-03-01T09:11:45;102798.16;;;1.94;76.24
61119;BME280;51448;51.660;5.824;2023-03-01T09:14:14;102795.06;;;2.03;75.97
61119;BME280;51448;51.660;5.824;2023-03-01T09:16:42;102785.94;;;2.14;75.20
61119;BME280;51448;51.660;5.824;2023-03-01T09:19:10;102786.25;;;2.22;74.11
61119;BME280;51448;51.660;5.824;2023-03-01T09:21:38;102785.69;;;2.31;74.58
61119;BME280;51448;51.660;5.824;2023-03-01T09:24:13;102779.16;;;2.40;74.88
61119;BME280;51448;51.660;5.824;2023-03-01T09:26:42;102775.13;;;2.49;74.48
61119;BME280;51448;51.660;5.824;2023-03-01T09:29:15;102776.38;;;2.60;73.52
61119;BME280;51448;51.660;5.824;2023-03-01T09:31:43;102776.78;;;2.71;72.43
61119;BME280;51448;51.660;5.824;2023-03-01T09:34:10;102771.81;;;2.78;72.33
61119;BME280;51448;51.660;5.824;2023-03-01T09:36:38;102769.56;;;2.88;71.44
61119;BME280;51448;51.660;5.824;2023-03-01T09:39:06;102774.97;;;2.94;71.62
61119;BME280;51448;51.660;5.824;2023-03-01T09:41:44;102770.19;;;3.06;71.31
61119;BME280;51448;51.660;5.824;2023-03-01T09:44:29;102771.47;;;3.19;70.32
61119;BME280;51448;51.660;5.824;2023-03-01T09:47:18;102752.75;;;3.29;67.08
61119;BME280;51448;51.660;5.824;2023-03-01T09:53:06;102744.28;;;3.35;66.82
61119;BME280;51448;51.660;5.824;2023-03-01T09:55:44;102755.50;;;3.34;66.05
61119;BME280;51448;51.660;5.824;2023-03-01T09:58:25;102747.81;;;3.37;66.23
61119;BME280;51448;51.660;5.824;2023-03-01T10:04:20;102743.94;;;3.51;64.73
61119;BME280;51448;51.660;5.824;2023-03-01T10:07:07;102743.25;;;3.58;64.81
61119;BME280;51448;51.660;5.824;2023-03-01T10:09:40;102729.63;;;3.66;65.58
61119;BME280;51448;51.660;5.824;2023-03-01T10:12:13;102723.72;;;3.71;66.08
61119;BME280;51448;51.660;5.824;2023-03-01T10:20:30;102708.50;;;3.85;63.44
61119;BME280;51448;51.660;5.824;2023-03-01T10:23:10;102699.13;;;3.90;63.84
61119;BME280;51448;51.660;5.824;2023-03-01T10:28:17;102690.75;;;4.00;63.80
61119;BME280;51448;51.660;5.824;2023-03-01T10:30:52;102696.06;;;4.05;63.31
61119;BME280;51448;51.660;5.824;2023-03-01T10:33:27;102686.72;;;4.12;63.46
61119;BME280;51448;51.660;5.824;2023-03-01T10:35:58;102688.66;;;4.19;63.09
61119;BME280;51448;51.660;5.824;2023-03-01T10:38:30;102699.38;;;4.30;63.61
61119;BME280;51448;51.660;5.824;2023-03-01T10:41:13;102689.97;;;4.35;62.08
61119;BME280;51448;51.660;5.824;2023-03-01T10:43:50;102687.56;;;4.42;61.55
61119;BME280;51448;51.660;5.824;2023-03-01T10:46:35;102684.13;;;4.43;61.67
61119;BME280;51448;51.660;5.824;2023-03-01T10:49:14;102679.06;;;4.50;61.57
61119;BME280;51448;51.660;5.824;2023-03-01T10:51:46;102684.34;;;4.53;60.98
61119;BME280;51448;51.660;5.824;2023-03-01T10:54:34;102681.00;;;4.57;60.65
61119;BME280;51448;51.660;5.824;2023-03-01T10:57:04;102684.56;;;4.60;60.64
61119;BME280;51448;51.660;5.824;2023-03-01T10:59:35;102680.28;;;4.62;58.99
61119;BME280;51448;51.660;5.824;2023-03-01T11:07:49;102692.88;;;4.79;60.99
61119;BME280;51448;51.660;5.824;2023-03-01T11:10:33;102689.66;;;4.89;59.95
61119;BME280;51448;51.660;5.824;2023-03-01T11:13:15;102688.94;;;4.95;59.91
61119;BME280;51448;51.660;5.824;2023-03-01T11:16:10;102689.91;;;5.00;60.14
61119;BME280;51448;51.660;5.824;2023-03-01T11:18:39;102687.44;;;5.06;59.48
61119;BME280;51448;51.660;5.824;2023-03-01T11:21:17;102680.63;;;5.11;59.42
61119;BME280;51448;51.660;5.824;2023-03-01T11:23:46;102671.16;;;5.16;59.56
61119;BME280;51448;51.660;5.824;2023-03-01T11:26:15;102672.22;;;5.24;59.02
61119;BME280;51448;51.660;5.824;2023-03-01T11:28:49;102673.16;;;5.27;57.50
61119;BME280;51448;51.660;5.824;2023-03-01T11:31:22;102677.69;;;5.34;57.82
61119;BME280;51448;51.660;5.824;2023-03-01T11:34:13;102669.00;;;5.35;57.74
61119;BME280;51448;51.660;5.824;2023-03-01T11:36:54;102657.63;;;5.33;58.49
61119;BME280;51448;51.660;5.824;2023-03-01T11:39:38;102663.78;;;5.35;58.16
61119;BME280;51448;51.660;5.824;2023-03-01T11:42:28;102675.31;;;5.44;57.24
61119;BME280;51448;51.660;5.824;2023-03-01T11:45:10;102662.31;;;5.46;56.81
61119;BME280;51448;51.660;5.824;2023-03-01T11:50:55;102673.88;;;5.59;57.16
61119;BME280;51448;51.660;5.824;2023-03-01T11:56:47;102654.00;;;5.64;57.13
61119;BME280;51448;51.660;5.824;2023-03-01T12:05:29;102644.84;;;5.84;56.78
61119;BME280;51448;51.660;5.824;2023-03-01T12:08:14;102639.72;;;5.89;57.00
61119;BME280;51448;51.660;5.824;2023-03-01T12:11:02;102635.56;;;5.97;56.04
61119;BME280;51448;51.660;5.824;2023-03-01T12:20:18;102634.16;;;6.15;56.36
61119;BME280;51448;51.660;5.824;2023-03-01T12:23:02;102624.78;;;6.26;56.45
61119;BME280;51448;51.660;5.824;2023-03-01T12:34:20;102623.22;;;6.37;53.64
61119;BME280;51448;51.660;5.824;2023-03-01T12:37:25;102618.91;;;6.39;53.74
61119;BME280;51448;51.660;5.824;2023-03-01T12:49:10;102594.91;;;6.60;52.14
61119;BME280;51448;51.660;5.824;2023-03-01T12:51:53;102595.81;;;6.64;53.15
61119;BME280;51448;51.660;5.824;2023-03-01T12:54:31;102589.84;;;6.71;53.46
61119;BME280;51448;51.660;5.824;2023-03-01T13:03:07;102578.06;;;6.99;52.36
61119;BME280;51448;51.660;5.824;2023-03-01T13:08:44;102565.06;;;7.04;52.70
61119;BME280;51448;51.660;5.824;2023-03-01T13:11:23;102568.59;;;7.09;52.01
61119;BME280;51448;51.660;5.824;2023-03-01T13:13:51;102559.03;;;7.10;52.34
61119;BME280;51448;51.660;5.824;2023-03-01T13:19:13;102559.09;;;7.17;51.81
61119;BME280;51448;51.660;5.824;2023-03-01T13:21:45;102556.53;;;7.19;51.18
61119;BME280;51448;51.660;5.824;2023-03-01T13:24:37;102541.75;;;7.22;51.95
61119;BME280;51448;51.660;5.824;2023-03-01T13:29:50;102539.31;;;7.38;50.95
61119;BME280;51448;51.660;5.824;2023-03-01T13:32:25;102539.38;;;7.41;50.00
61119;BME280;51448;51.660;5.824;2023-03-01T13:37:44;102522.75;;;7.39;50.27
61119;BME280;51448;51.660;5.824;2023-03-01T13:42:53;102515.81;;;7.41;50.08
61119;BME280;51448;51.660;5.824;2023-03-01T13:45:39;102507.09;;;7.40;49.78
61119;BME280;51448;51.660;5.824;2023-03-01T13:48:22;102500.06;;;7.39;50.06
61119;BME280;51448;51.660;5.824;2023-03-01T13:51:03;102492.28;;;7.42;49.78
61119;BME280;51448;51.660;5.824;2023-03-01T13:53:37;102493.16;;;7.46;50.22
61119;BME280;51448;51.660;5.824;2023-03-01T13:56:15;102483.63;;;7.51;49.60
61119;BME280;51448;51.660;5.824;2023-03-01T13:59:01;102489.75;;;7.52;49.76
61119;BME280;51448;51.660;5.824;2023-03-01T14:01:35;102477.56;;;7.55;49.35
61119;BME280;51448;51.660;5.824;2023-03-01T14:04:22;102476.72;;;7.58;49.46
61119;BME280;51448;51.660;5.824;2023-03-01T14:07:19;102464.53;;;7.61;49.91
61119;BME280;51448;51.660;5.824;2023-03-01T14:09:59;102460.19;;;7.63;49.77
61119;BME280;51448;51.660;5.824;2023-03-01T14:12:43;102455.91;;;7.70;48.88
61119;BME280;51448;51.660;5.824;2023-03-01T14:18:09;102458.47;;;7.65;48.55
61119;BME280;51448;51.660;5.824;2023-03-01T14:20:44;102455.88;;;7.67;49.56
61119;BME280;51448;51.660;5.824;2023-03-01T14:23:22;102455.94;;;7.75;49.71
61119;BME280;51448;51.660;5.824;2023-03-01T14:25:53;102455.97;;;7.78;48.88
61119;BME280;51448;51.660;5.824;2023-03-01T14:28:31;102455.06;;;7.74;48.67
61119;BME280;51448;51.660;5.824;2023-03-01T14:31:37;102454.16;;;7.72;48.69
61119;BME280;51448;51.660;5.824;2023-03-01T14:34:23;102447.19;;;7.74;49.05
61119;BME280;51448;51.660;5.824;2023-03-01T14:36:52;102441.09;;;7.77;49.39
61119;BME280;51448;51.660;5.824;2023-03-01T14:39:24;102438.56;;;7.81;49.42
61119;BME280;51448;51.660;5.824;2023-03-01T14:41:53;102443.84;;;7.88;49.33
61119;BME280;51448;51.660;5.824;2023-03-01T14:44:23;102436.91;;;7.94;48.05
61119;BME280;51448;51.660;5.824;2023-03-01T14:46:54;102429.00;;;7.88;47.52